sensor_id;sensor_type;location;lat;lon;timestamp;P1;durP1;ratioP1;P2;durP2;ratioP2
21251;SDS011;10784;50.578;17.878;2023-12-14T00:02:07;57.65;;;21.45;;
21251;SDS011;10784;50.578;17.878;2023-12-14T00:04:40;56.80;;;19.73;;
21251;SDS011;10784;50.578;17.878;2023-12-14T00:07:13;70.03;;;24.35;;
21251;SDS011;10784;50.578;17.878;2023-12-14T00:09:48;51.65;;;19.58;;
21251;SDS011;10784;50.578;17.878;2023-12-14T00:12:20;60.28;;;21.48;;
21251;SDS011;10784;50.578;17.878;2023-12-14T00:14:53;63.03;;;19.48;;
21251;SDS011;10784;50.578;17.878;2023-12-14T00:17:26;53.85;;;21.35;;
21251;SDS011;10784;50.578;17.878;2023-12-14T00:19:59;69.18;;;21.88;;
21251;SDS011;10784;50.578;17.878;2023-12-14T00:22:32;55.40;;;21.88;;
21251;SDS011;10784;50.578;17.878;2023-12-14T00:25:06;50.80;;;20.35;;
21251;SDS011;10784;50.578;17.878;2023-12-14T00:27:39;51.10;;;18.92;;
21251;SDS011;10784;50.578;17.878;2023-12-14T00:30:12;57.92;;;20.52;;
21251;SDS011;10784;50.578;17.878;2023-12-14T00:32:45;56.25;;;19.35;;
21251;SDS011;10784;50.578;17.878;2023-12-14T00:35:18;52.45;;;18.25;;
21251;SDS011;10784;50.578;17.878;2023-12-14T00:37:50;53.97;;;18.13;;
21251;SDS011;10784;50.578;17.878;2023-12-14T00:40:24;50.08;;;17.98;;
21251;SDS011;10784;50.578;17.878;2023-12-14T00:42:57;50.92;;;19.40;;
21251;SDS011;10784;50.578;17.878;2023-12-14T00:45:30;49.15;;;16.90;;
21251;SDS011;10784;50.578;17.878;2023-12-14T00:48:05;50.03;;;16.23;;
21251;SDS011;10784;50.578;17.878;2023-12-14T00:50:38;46.38;;;16.42;;
21251;SDS011;10784;50.578;17.878;2023-12-14T00:53:11;51.67;;;16.70;;
21251;SDS011;10784;50.578;17.878;2023-12-14T00:55:44;41.03;;;15.07;;
21251;SDS011;10784;50.578;17.878;2023-12-14T00:58:18;45.78;;;16.85;;
21251;SDS011;10784;50.578;17.878;2023-12-14T01:00:51;48.75;;;17.90;;
21251;SDS011;10784;50.578;17.878;2023-12-14T01:03:30;46.10;;;17.73;;
21251;SDS011;10784;50.578;17.878;2023-12-14T01:06:04;48.63;;;17.80;;
21251;SDS011;10784;50.578;17.878;2023-12-14T01:08:36;45.33;;;16.05;;
21251;SDS011;10784;50.578;17.878;2023-12-14T01:11:09;44.03;;;16.85;;
21251;SDS011;10784;50.578;17.878;2023-12-14T01:13:43;57.55;;;18.92;;
21251;SDS011;10784;50.578;17.878;2023-12-14T01:16:16;57.65;;;18.08;;
21251;SDS011;10784;50.578;17.878;2023-12-14T01:18:49;50.42;;;18.58;;
21251;SDS011;10784;50.578;17.878;2023-12-14T01:21:22;42.00;;;15.82;;
21251;SDS011;10784;50.578;17.878;2023-12-14T01:23:55;53.00;;;18.13;;
21251;SDS011;10784;50.578;17.878;2023-12-14T01:26:28;52.58;;;18.50;;
21251;SDS011;10784;50.578;17.878;2023-12-14T01:29:01;45.75;;;16.95;;
21251;SDS011;10784;50.578;17.878;2023-12-14T01:31:34;48.13;;;16.45;;
21251;SDS011;10784;50.578;17.878;2023-12-14T01:34:07;47.05;;;15.75;;
21251;SDS011;10784;50.578;17.878;2023-12-14T01:36:41;40.72;;;16.35;;
21251;SDS011;10784;50.578;17.878;2023-12-14T01:39:13;54.45;;;18.20;;
21251;SDS011;10784;50.578;17.878;2023-12-14T01:41:46;43.92;;;15.35;;
21251;SDS011;10784;50.578;17.878;2023-12-14T01:44:21;52.95;;;16.90;;
21251;SDS011;10784;50.578;17.878;2023-12-14T01:46:55;43.03;;;16.80;;
21251;SDS011;10784;50.578;17.878;2023-12-14T01:49:27;50.90;;;17.63;;
21251;SDS011;10784;50.578;17.878;2023-12-14T01:52:00;38.13;;;15.05;;
21251;SDS011;10784;50.578;17.878;2023-12-14T01:54:33;46.65;;;17.65;;
21251;SDS011;10784;50.578;17.878;2023-12-14T01:57:06;43.50;;;15.82;;
21251;SDS011;10784;50.578;17.878;2023-12-14T01:59:39;50.38;;;17.20;;
21251;SDS011;10784;50.578;17.878;2023-12-14T02:02:11;39.55;;;16.50;;
21251;SDS011;10784;50.578;17.878;2023-12-14T02:04:44;39.83;;;17.25;;
21251;SDS011;10784;50.578;17.878;2023-12-14T02:07:17;51.03;;;16.52;;
21251;SDS011;10784;50.578;17.878;2023-12-14T02:09:50;45.72;;;15.70;;
21251;SDS011;10784;50.578;17.878;2023-12-14T02:12:24;52.80;;;17.98;;
21251;SDS011;10784;50.578;17.878;2023-12-14T02:14:56;49.80;;;17.60;;
21251;SDS011;10784;50.578;17.878;2023-12-14T02:17:29;44.58;;;16.70;;
21251;SDS011;10784;50.578;17.878;2023-12-14T02:20:02;52.90;;;19.25;;
21251;SDS011;10784;50.578;17.878;2023-12-14T02:22:47;55.40;;;18.55;;
21251;SDS011;10784;50.578;17.878;2023-12-14T02:25:22;51.17;;;18.67;;
21251;SDS011;10784;50.578;17.878;2023-12-14T02:27:55;49.42;;;17.63;;
21251;SDS011;10784;50.578;17.878;2023-12-14T02:30:28;61.70;;;20.63;;
21251;SDS011;10784;50.578;17.878;2023-12-14T02:33:01;42.78;;;17.27;;
21251;SDS011;10784;50.578;17.878;2023-12-14T02:35:33;58.60;;;20.75;;
21251;SDS011;10784;50.578;17.878;2023-12-14T02:38:06;59.53;;;19.77;;
21251;SDS011;10784;50.578;17.878;2023-12-14T02:40:39;56.35;;;17.25;;
21251;SDS011;10784;50.578;17.878;2023-12-14T02:43:12;49.70;;;18.52;;
21251;SDS011;10784;50.578;17.878;2023-12-14T02:45:45;53.13;;;16.58;;
21251;SDS011;10784;50.578;17.878;2023-12-14T02:48:18;45.45;;;17.02;;
21251;SDS011;10784;50.578;17.878;2023-12-14T02:50:51;49.45;;;18.20;;
21251;SDS011;10784;50.578;17.878;2023-12-14T02:53:24;60.58;;;19.05;;
21251;SDS011;10784;50.578;17.878;2023-12-14T02:56:00;47.28;;;16.60;;
21251;SDS011;10784;50.578;17.878;2023-12-14T02:58:33;45.92;;;14.95;;
21251;SDS011;10784;50.578;17.878;2023-12-14T03:01:06;47.55;;;17.52;;
21251;SDS011;10784;50.578;17.878;2023-12-14T03:03:39;49.50;;;16.27;;
21251;SDS011;10784;50.578;17.878;2023-12-14T03:06:12;55.28;;;18.55;;
21251;SDS011;10784;50.578;17.878;2023-12-14T03:08:45;53.47;;;16.00;;
21251;SDS011;10784;50.578;17.878;2023-12-14T03:11:24;42.72;;;16.70;;
21251;SDS011;10784;50.578;17.878;2023-12-14T03:13:57;55.47;;;16.92;;
21251;SDS011;10784;50.578;17.878;2023-12-14T03:16:30;44.25;;;17.73;;
21251;SDS011;10784;50.578;17.878;2023-12-14T03:19:03;48.03;;;15.73;;
21251;SDS011;10784;50.578;17.878;2023-12-14T03:21:36;41.03;;;15.00;;
21251;SDS011;10784;50.578;17.878;2023-12-14T03:24:09;56.85;;;16.63;;
21251;SDS011;10784;50.578;17.878;2023-12-14T03:26:42;45.90;;;15.45;;
21251;SDS011;10784;50.578;17.878;2023-12-14T03:29:16;44.67;;;15.70;;
21251;SDS011;10784;50.578;17.878;2023-12-14T03:31:49;43.60;;;16.05;;
21251;SDS011;10784;50.578;17.878;2023-12-14T03:34:22;47.40;;;14.90;;
21251;SDS011;10784;50.578;17.878;2023-12-14T03:36:55;39.65;;;14.05;;
21251;SDS011;10784;50.578;17.878;2023-12-14T03:39:28;38.28;;;13.65;;
21251;SDS011;10784;50.578;17.878;2023-12-14T03:42:00;38.92;;;13.88;;
21251;SDS011;10784;50.578;17.878;2023-12-14T03:44:33;36.40;;;13.98;;
21251;SDS011;10784;50.578;17.878;2023-12-14T03:47:06;41.97;;;16.25;;
21251;SDS011;10784;50.578;17.878;2023-12-14T03:49:40;38.53;;;13.55;;
21251;SDS011;10784;50.578;17.878;2023-12-14T03:52:12;41.17;;;14.23;;
21251;SDS011;10784;50.578;17.878;2023-12-14T03:54:45;52.15;;;12.57;;
21251;SDS011;10784;50.578;17.878;2023-12-14T03:57:18;40.20;;;14.35;;
21251;SDS011;10784;50.578;17.878;2023-12-14T03:59:51;43.92;;;14.73;;
21251;SDS011;10784;50.578;17.878;2023-12-14T04:02:24;41.72;;;14.95;;
21251;SDS011;10784;50.578;17.878;2023-12-14T04:04:57;42.92;;;17.13;;
21251;SDS011;10784;50.578;17.878;2023-12-14T04:07:30;44.92;;;13.23;;
21251;SDS011;10784;50.578;17.878;2023-12-14T04:10:03;43.40;;;15.25;;
21251;SDS011;10784;50.578;17.878;2023-12-14T04:12:36;42.65;;;15.50;;
21251;SDS011;10784;50.578;17.878;2023-12-14T04:15:09;38.58;;;13.90;;
21251;SDS011;10784;50.578;17.878;2023-12-14T04:17:42;39.55;;;15.38;;
21251;SDS011;10784;50.578;17.878;2023-12-14T04:20:15;41.15;;;14.32;;
21251;SDS011;10784;50.578;17.878;2023-12-14T04:22:48;44.60;;;15.60;;
21251;SDS011;10784;50.578;17.878;2023-12-14T04:25:24;36.17;;;13.45;;
21251;SDS011;10784;50.578;17.878;2023-12-14T04:27:57;34.38;;;12.25;;
21251;SDS011;10784;50.578;17.878;2023-12-14T04:30:30;33.78;;;11.63;;
21251;SDS011;10784;50.578;17.878;2023-12-14T04:33:03;30.48;;;11.45;;
21251;SDS011;10784;50.578;17.878;2023-12-14T04:35:36;27.85;;;10.73;;
21251;SDS011;10784;50.578;17.878;2023-12-14T04:38:09;29.15;;;11.48;;
21251;SDS011;10784;50.578;17.878;2023-12-14T04:40:42;30.10;;;11.90;;
21251;SDS011;10784;50.578;17.878;2023-12-14T04:43:15;30.15;;;11.27;;
21251;SDS011;10784;50.578;17.878;2023-12-14T04:45:48;35.60;;;11.38;;
21251;SDS011;10784;50.578;17.878;2023-12-14T04:48:20;35.90;;;12.23;;
21251;SDS011;10784;50.578;17.878;2023-12-14T04:50:54;31.33;;;10.90;;
21251;SDS011;10784;50.578;17.878;2023-12-14T04:53:26;33.13;;;12.45;;
21251;SDS011;10784;50.578;17.878;2023-12-14T04:55:59;33.00;;;12.35;;
21251;SDS011;10784;50.578;17.878;2023-12-14T04:58:32;34.72;;;11.77;;
21251;SDS011;10784;50.578;17.878;2023-12-14T05:01:06;33.63;;;11.68;;
21251;SDS011;10784;50.578;17.878;2023-12-14T05:03:39;36.15;;;12.15;;
21251;SDS011;10784;50.578;17.878;2023-12-14T05:06:12;42.13;;;13.02;;
21251;SDS011;10784;50.578;17.878;2023-12-14T05:08:45;37.08;;;13.05;;
21251;SDS011;10784;50.578;17.878;2023-12-14T05:11:18;29.80;;;11.68;;
21251;SDS011;10784;50.578;17.878;2023-12-14T05:13:51;37.72;;;13.20;;
21251;SDS011;10784;50.578;17.878;2023-12-14T05:16:24;37.88;;;11.93;;
21251;SDS011;10784;50.578;17.878;2023-12-14T05:18:59;34.80;;;11.05;;
21251;SDS011;10784;50.578;17.878;2023-12-14T05:21:32;31.65;;;12.13;;
21251;SDS011;10784;50.578;17.878;2023-12-14T05:24:05;36.72;;;13.95;;
21251;SDS011;10784;50.578;17.878;2023-12-14T05:26:39;39.75;;;12.88;;
21251;SDS011;10784;50.578;17.878;2023-12-14T05:29:11;36.85;;;12.32;;
21251;SDS011;10784;50.578;17.878;2023-12-14T05:31:44;35.45;;;13.85;;
21251;SDS011;10784;50.578;17.878;2023-12-14T05:34:17;41.53;;;14.75;;
21251;SDS011;10784;50.578;17.878;2023-12-14T05:36:50;49.17;;;15.25;;
21251;SDS011;10784;50.578;17.878;2023-12-14T05:39:23;56.35;;;16.45;;
21251;SDS011;10784;50.578;17.878;2023-12-14T05:41:56;55.08;;;16.65;;
21251;SDS011;10784;50.578;17.878;2023-12-14T05:44:29;49.17;;;14.68;;
21251;SDS011;10784;50.578;17.878;2023-12-14T05:47:02;40.38;;;14.45;;
21251;SDS011;10784;50.578;17.878;2023-12-14T05:49:35;40.53;;;13.48;;
21251;SDS011;10784;50.578;17.878;2023-12-14T05:52:08;41.40;;;12.60;;
21251;SDS011;10784;50.578;17.878;2023-12-14T05:54:40;37.72;;;11.00;;
21251;SDS011;10784;50.578;17.878;2023-12-14T05:57:13;41.17;;;14.68;;
21251;SDS011;10784;50.578;17.878;2023-12-14T05:59:46;38.20;;;13.20;;
21251;SDS011;10784;50.578;17.878;2023-12-14T06:02:19;41.08;;;12.05;;
21251;SDS011;10784;50.578;17.878;2023-12-14T06:04:52;41.97;;;13.23;;
21251;SDS011;10784;50.578;17.878;2023-12-14T06:07:25;46.55;;;14.52;;
21251;SDS011;10784;50.578;17.878;2023-12-14T06:09:58;40.15;;;14.95;;
21251;SDS011;10784;50.578;17.878;2023-12-14T06:12:31;48.90;;;13.60;;
21251;SDS011;10784;50.578;17.878;2023-12-14T06:15:05;39.75;;;15.25;;
21251;SDS011;10784;50.578;17.878;2023-12-14T06:17:39;34.22;;;11.10;;
21251;SDS011;10784;50.578;17.878;2023-12-14T06:20:13;42.10;;;15.25;;
21251;SDS011;10784;50.578;17.878;2023-12-14T06:22:46;45.63;;;14.57;;
21251;SDS011;10784;50.578;17.878;2023-12-14T06:25:19;39.28;;;13.65;;
21251;SDS011;10784;50.578;17.878;2023-12-14T06:27:52;44.83;;;13.20;;
21251;SDS011;10784;50.578;17.878;2023-12-14T06:30:25;40.47;;;11.80;;
21251;SDS011;10784;50.578;17.878;2023-12-14T06:32:58;38.75;;;13.55;;
21251;SDS011;10784;50.578;17.878;2023-12-14T06:35:31;41.72;;;14.38;;
21251;SDS011;10784;50.578;17.878;2023-12-14T06:38:04;39.38;;;12.77;;
21251;SDS011;10784;50.578;17.878;2023-12-14T06:40:37;52.05;;;15.75;;
21251;SDS011;10784;50.578;17.878;2023-12-14T06:43:10;46.83;;;15.98;;
21251;SDS011;10784;50.578;17.878;2023-12-14T06:45:43;38.72;;;14.05;;
21251;SDS011;10784;50.578;17.878;2023-12-14T06:48:16;34.58;;;14.73;;
21251;SDS011;10784;50.578;17.878;2023-12-14T06:50:49;49.00;;;14.70;;
21251;SDS011;10784;50.578;17.878;2023-12-14T06:53:22;52.25;;;15.75;;
21251;SDS011;10784;50.578;17.878;2023-12-14T06:55:54;55.85;;;18.55;;
21251;SDS011;10784;50.578;17.878;2023-12-14T06:58:27;58.22;;;19.65;;
21251;SDS011;10784;50.578;17.878;2023-12-14T07:01:00;63.38;;;18.55;;
21251;SDS011;10784;50.578;17.878;2023-12-14T07:03:33;47.78;;;17.55;;
21251;SDS011;10784;50.578;17.878;2023-12-14T07:06:06;56.72;;;16.73;;
21251;SDS011;10784;50.578;17.878;2023-12-14T07:08:40;37.13;;;15.38;;
21251;SDS011;10784;50.578;17.878;2023-12-14T07:11:13;50.75;;;16.00;;
21251;SDS011;10784;50.578;17.878;2023-12-14T07:13:46;56.13;;;18.70;;
21251;SDS011;10784;50.578;17.878;2023-12-14T07:16:19;62.72;;;17.70;;
21251;SDS011;10784;50.578;17.878;2023-12-14T07:18:52;55.72;;;17.08;;
21251;SDS011;10784;50.578;17.878;2023-12-14T07:21:25;53.00;;;17.75;;
21251;SDS011;10784;50.578;17.878;2023-12-14T07:23:58;54.67;;;16.27;;
21251;SDS011;10784;50.578;17.878;2023-12-14T07:26:31;51.13;;;17.30;;
21251;SDS011;10784;50.578;17.878;2023-12-14T07:29:04;49.75;;;13.98;;
21251;SDS011;10784;50.578;17.878;2023-12-14T07:31:37;50.90;;;18.13;;
21251;SDS011;10784;50.578;17.878;2023-12-14T07:34:10;53.50;;;15.75;;
21251;SDS011;10784;50.578;17.878;2023-12-14T07:36:43;39.60;;;14.73;;
21251;SDS011;10784;50.578;17.878;2023-12-14T07:39:16;53.03;;;18.80;;
21251;SDS011;10784;50.578;17.878;2023-12-14T07:41:48;56.85;;;15.45;;
21251;SDS011;10784;50.578;17.878;2023-12-14T07:44:21;51.95;;;16.88;;
21251;SDS011;10784;50.578;17.878;2023-12-14T07:46:55;48.47;;;16.10;;
21251;SDS011;10784;50.578;17.878;2023-12-14T07:49:29;45.45;;;13.90;;
21251;SDS011;10784;50.578;17.878;2023-12-14T07:52:02;42.60;;;14.00;;
21251;SDS011;10784;50.578;17.878;2023-12-14T07:54:35;51.03;;;15.35;;
21251;SDS011;10784;50.578;17.878;2023-12-14T07:57:08;53.03;;;15.43;;
21251;SDS011;10784;50.578;17.878;2023-12-14T07:59:41;49.45;;;15.90;;
21251;SDS011;10784;50.578;17.878;2023-12-14T08:02:13;51.20;;;15.07;;
21251;SDS011;10784;50.578;17.878;2023-12-14T08:04:47;53.83;;;17.55;;
21251;SDS011;10784;50.578;17.878;2023-12-14T08:07:19;40.55;;;14.63;;
21251;SDS011;10784;50.578;17.878;2023-12-14T08:09:52;55.63;;;16.83;;
21251;SDS011;10784;50.578;17.878;2023-12-14T08:12:25;38.90;;;14.45;;
21251;SDS011;10784;50.578;17.878;2023-12-14T08:14:58;35.92;;;14.00;;
21251;SDS011;10784;50.578;17.878;2023-12-14T08:17:31;51.42;;;17.20;;
21251;SDS011;10784;50.578;17.878;2023-12-14T08:20:04;49.22;;;14.77;;
21251;SDS011;10784;50.578;17.878;2023-12-14T08:22:41;42.38;;;14.93;;
21251;SDS011;10784;50.578;17.878;2023-12-14T08:25:17;49.60;;;16.45;;
21251;SDS011;10784;50.578;17.878;2023-12-14T08:27:50;44.83;;;15.40;;
21251;SDS011;10784;50.578;17.878;2023-12-14T08:30:24;46.58;;;14.82;;
21251;SDS011;10784;50.578;17.878;2023-12-14T08:32:56;55.40;;;14.45;;
21251;SDS011;10784;50.578;17.878;2023-12-14T08:35:30;46.38;;;15.07;;
21251;SDS011;10784;50.578;17.878;2023-12-14T08:38:03;68.75;;;22.42;;
21251;SDS011;10784;50.578;17.878;2023-12-14T08:40:37;48.35;;;15.70;;
21251;SDS011;10784;50.578;17.878;2023-12-14T08:43:10;44.72;;;15.40;;
21251;SDS011;10784;50.578;17.878;2023-12-14T08:45:43;69.30;;;19.27;;
21251;SDS011;10784;50.578;17.878;2023-12-14T08:48:15;52.42;;;17.73;;
21251;SDS011;10784;50.578;17.878;2023-12-14T08:50:49;36.05;;;15.90;;
21251;SDS011;10784;50.578;17.878;2023-12-14T08:53:21;53.78;;;16.67;;
21251;SDS011;10784;50.578;17.878;2023-12-14T08:55:54;50.85;;;17.83;;
21251;SDS011;10784;50.578;17.878;2023-12-14T08:58:27;47.30;;;14.65;;
21251;SDS011;10784;50.578;17.878;2023-12-14T09:01:00;48.58;;;16.23;;
21251;SDS011;10784;50.578;17.878;2023-12-14T09:03:33;48.95;;;15.80;;
21251;SDS011;10784;50.578;17.878;2023-12-14T09:06:06;59.63;;;17.70;;
21251;SDS011;10784;50.578;17.878;2023-12-14T09:08:39;57.17;;;16.45;;
21251;SDS011;10784;50.578;17.878;2023-12-14T09:11:12;36.83;;;14.52;;
21251;SDS011;10784;50.578;17.878;2023-12-14T09:13:45;47.45;;;15.73;;
21251;SDS011;10784;50.578;17.878;2023-12-14T09:16:18;43.22;;;14.52;;
21251;SDS011;10784;50.578;17.878;2023-12-14T09:18:51;44.97;;;16.08;;
21251;SDS011;10784;50.578;17.878;2023-12-14T09:21:24;40.72;;;13.27;;
21251;SDS011;10784;50.578;17.878;2023-12-14T09:24:11;45.30;;;14.20;;
21251;SDS011;10784;50.578;17.878;2023-12-14T09:26:45;39.50;;;14.40;;
21251;SDS011;10784;50.578;17.878;2023-12-14T09:29:18;51.40;;;14.50;;
21251;SDS011;10784;50.578;17.878;2023-12-14T09:31:51;52.47;;;16.33;;
21251;SDS011;10784;50.578;17.878;2023-12-14T09:34:24;47.55;;;12.60;;
21251;SDS011;10784;50.578;17.878;2023-12-14T09:36:57;52.38;;;14.02;;
21251;SDS011;10784;50.578;17.878;2023-12-14T09:39:30;57.10;;;16.20;;
21251;SDS011;10784;50.578;17.878;2023-12-14T09:42:03;58.05;;;16.05;;
21251;SDS011;10784;50.578;17.878;2023-12-14T09:44:36;40.95;;;14.10;;
21251;SDS011;10784;50.578;17.878;2023-12-14T09:47:09;41.17;;;13.63;;
21251;SDS011;10784;50.578;17.878;2023-12-14T09:49:42;53.10;;;13.00;;
21251;SDS011;10784;50.578;17.878;2023-12-14T09:52:18;41.40;;;14.10;;
21251;SDS011;10784;50.578;17.878;2023-12-14T09:54:51;45.50;;;14.13;;
21251;SDS011;10784;50.578;17.878;2023-12-14T09:57:27;47.65;;;13.35;;
21251;SDS011;10784;50.578;17.878;2023-12-14T09:59:59;55.80;;;16.52;;
21251;SDS011;10784;50.578;17.878;2023-12-14T10:02:32;43.65;;;14.18;;
21251;SDS011;10784;50.578;17.878;2023-12-14T10:05:07;49.90;;;14.63;;
21251;SDS011;10784;50.578;17.878;2023-12-14T10:07:42;37.42;;;13.02;;
21251;SDS011;10784;50.578;17.878;2023-12-14T10:10:16;45.15;;;13.45;;
21251;SDS011;10784;50.578;17.878;2023-12-14T10:12:50;40.05;;;14.48;;
21251;SDS011;10784;50.578;17.878;2023-12-14T10:15:24;40.83;;;13.60;;
21251;SDS011;10784;50.578;17.878;2023-12-14T10:17:58;55.08;;;15.70;;
21251;SDS011;10784;50.578;17.878;2023-12-14T10:20:32;47.35;;;12.48;;
21251;SDS011;10784;50.578;17.878;2023-12-14T10:23:05;35.42;;;13.73;;
21251;SDS011;10784;50.578;17.878;2023-12-14T10:25:39;41.60;;;13.63;;
21251;SDS011;10784;50.578;17.878;2023-12-14T10:28:14;42.50;;;13.52;;
21251;SDS011;10784;50.578;17.878;2023-12-14T10:30:48;69.85;;;14.52;;
21251;SDS011;10784;50.578;17.878;2023-12-14T10:33:21;51.53;;;15.05;;
21251;SDS011;10784;50.578;17.878;2023-12-14T10:35:54;45.92;;;14.60;;
21251;SDS011;10784;50.578;17.878;2023-12-14T10:38:28;47.75;;;15.32;;
21251;SDS011;10784;50.578;17.878;2023-12-14T10:41:02;42.70;;;15.05;;
21251;SDS011;10784;50.578;17.878;2023-12-14T10:43:36;44.25;;;15.18;;
21251;SDS011;10784;50.578;17.878;2023-12-14T10:46:21;47.47;;;14.02;;
21251;SDS011;10784;50.578;17.878;2023-12-14T10:48:55;54.92;;;16.48;;
21251;SDS011;10784;50.578;17.878;2023-12-14T10:51:28;61.25;;;16.75;;
21251;SDS011;10784;50.578;17.878;2023-12-14T10:54:01;51.78;;;16.30;;
21251;SDS011;10784;50.578;17.878;2023-12-14T10:56:33;48.22;;;14.10;;
21251;SDS011;10784;50.578;17.878;2023-12-14T10:59:07;54.83;;;14.48;;
21251;SDS011;10784;50.578;17.878;2023-12-14T11:01:40;51.13;;;14.18;;
21251;SDS011;10784;50.578;17.878;2023-12-14T11:04:13;43.60;;;13.20;;
21251;SDS011;10784;50.578;17.878;2023-12-14T11:06:49;46.88;;;13.80;;
21251;SDS011;10784;50.578;17.878;2023-12-14T11:09:23;42.15;;;13.75;;
21251;SDS011;10784;50.578;17.878;2023-12-14T11:11:57;37.42;;;13.27;;
21251;SDS011;10784;50.578;17.878;2023-12-14T11:14:31;42.88;;;15.70;;
21251;SDS011;10784;50.578;17.878;2023-12-14T11:17:05;40.35;;;14.15;;
21251;SDS011;10784;50.578;17.878;2023-12-14T11:19:39;38.15;;;13.45;;
21251;SDS011;10784;50.578;17.878;2023-12-14T11:22:12;54.50;;;16.23;;
21251;SDS011;10784;50.578;17.878;2023-12-14T11:24:51;44.15;;;13.77;;
21251;SDS011;10784;50.578;17.878;2023-12-14T11:27:26;38.60;;;13.40;;
21251;SDS011;10784;50.578;17.878;2023-12-14T11:30:00;43.45;;;13.38;;
21251;SDS011;10784;50.578;17.878;2023-12-14T11:32:34;33.97;;;12.98;;
21251;SDS011;10784;50.578;17.878;2023-12-14T11:35:08;41.58;;;14.10;;
21251;SDS011;10784;50.578;17.878;2023-12-14T11:37:43;31.77;;;12.60;;
21251;SDS011;10784;50.578;17.878;2023-12-14T11:40:16;35.95;;;13.30;;
21251;SDS011;10784;50.578;17.878;2023-12-14T11:43:03;37.70;;;14.68;;
21251;SDS011;10784;50.578;17.878;2023-12-14T11:45:40;44.30;;;13.50;;
21251;SDS011;10784;50.578;17.878;2023-12-14T11:48:13;45.90;;;13.60;;
21251;SDS011;10784;50.578;17.878;2023-12-14T11:50:47;50.13;;;14.13;;
21251;SDS011;10784;50.578;17.878;2023-12-14T11:53:20;47.20;;;15.50;;
21251;SDS011;10784;50.578;17.878;2023-12-14T11:55:53;45.88;;;15.13;;
21251;SDS011;10784;50.578;17.878;2023-12-14T11:58:26;51.92;;;16.98;;
21251;SDS011;10784;50.578;17.878;2023-12-14T12:03:45;51.13;;;16.75;;
21251;SDS011;10784;50.578;17.878;2023-12-14T12:08:56;48.25;;;15.35;;
21251;SDS011;10784;50.578;17.878;2023-12-14T12:11:29;48.38;;;13.75;;
21251;SDS011;10784;50.578;17.878;2023-12-14T12:14:04;55.58;;;16.27;;
21251;SDS011;10784;50.578;17.878;2023-12-14T12:16:37;44.10;;;13.02;;
21251;SDS011;10784;50.578;17.878;2023-12-14T12:19:11;46.72;;;16.02;;
21251;SDS011;10784;50.578;17.878;2023-12-14T12:21:44;46.70;;;14.82;;
21251;SDS011;10784;50.578;17.878;2023-12-14T12:24:17;54.42;;;15.35;;
21251;SDS011;10784;50.578;17.878;2023-12-14T12:26:58;43.20;;;14.10;;
21251;SDS011;10784;50.578;17.878;2023-12-14T12:29:31;47.58;;;16.48;;
21251;SDS011;10784;50.578;17.878;2023-12-14T12:32:04;45.40;;;13.15;;
21251;SDS011;10784;50.578;17.878;2023-12-14T12:34:37;49.95;;;14.60;;
21251;SDS011;10784;50.578;17.878;2023-12-14T12:37:10;33.05;;;12.60;;
21251;SDS011;10784;50.578;17.878;2023-12-14T12:39:45;49.20;;;13.77;;
21251;SDS011;10784;50.578;17.878;2023-12-14T12:42:18;43.28;;;13.90;;
21251;SDS011;10784;50.578;17.878;2023-12-14T12:44:50;41.85;;;14.48;;
21251;SDS011;10784;50.578;17.878;2023-12-14T12:47:24;47.28;;;15.10;;
21251;SDS011;10784;50.578;17.878;2023-12-14T12:49:57;46.83;;;13.77;;
21251;SDS011;10784;50.578;17.878;2023-12-14T12:52:30;45.58;;;13.55;;
21251;SDS011;10784;50.578;17.878;2023-12-14T12:55:04;40.17;;;14.07;;
21251;SDS011;10784;50.578;17.878;2023-12-14T12:57:37;39.55;;;13.40;;
21251;SDS011;10784;50.578;17.878;2023-12-14T13:00:10;34.80;;;12.52;;
21251;SDS011;10784;50.578;17.878;2023-12-14T13:02:47;28.20;;;11.48;;
21251;SDS011;10784;50.578;17.878;2023-12-14T13:05:19;30.48;;;11.93;;
21251;SDS011;10784;50.578;17.878;2023-12-14T13:07:53;30.05;;;12.45;;
21251;SDS011;10784;50.578;17.878;2023-12-14T13:10:26;32.25;;;10.73;;
21251;SDS011;10784;50.578;17.878;2023-12-14T13:13:05;32.03;;;11.50;;
21251;SDS011;10784;50.578;17.878;2023-12-14T13:15:39;28.83;;;9.93;;
21251;SDS011;10784;50.578;17.878;2023-12-14T13:18:12;36.10;;;10.70;;
21251;SDS011;10784;50.578;17.878;2023-12-14T13:20:45;27.50;;;10.25;;
21251;SDS011;10784;50.578;17.878;2023-12-14T13:23:18;32.10;;;11.10;;
21251;SDS011;10784;50.578;17.878;2023-12-14T13:25:51;35.67;;;11.07;;
21251;SDS011;10784;50.578;17.878;2023-12-14T13:28:24;24.88;;;10.70;;
21251;SDS011;10784;50.578;17.878;2023-12-14T13:30:57;23.00;;;10.30;;
21251;SDS011;10784;50.578;17.878;2023-12-14T13:33:30;32.03;;;12.63;;
21251;SDS011;10784;50.578;17.878;2023-12-14T13:36:03;23.95;;;9.27;;
21251;SDS011;10784;50.578;17.878;2023-12-14T13:38:36;32.00;;;10.93;;
21251;SDS011;10784;50.578;17.878;2023-12-14T13:41:09;21.55;;;10.00;;
21251;SDS011;10784;50.578;17.878;2023-12-14T13:43:42;22.65;;;8.65;;
21251;SDS011;10784;50.578;17.878;2023-12-14T13:46:16;28.48;;;11.38;;
21251;SDS011;10784;50.578;17.878;2023-12-14T13:48:54;24.58;;;9.27;;
21251;SDS011;10784;50.578;17.878;2023-12-14T13:51:27;23.55;;;10.05;;
21251;SDS011;10784;50.578;17.878;2023-12-14T13:54:00;25.00;;;9.45;;
21251;SDS011;10784;50.578;17.878;2023-12-14T13:56:33;37.67;;;11.32;;
21251;SDS011;10784;50.578;17.878;2023-12-14T13:59:06;27.08;;;11.68;;
21251;SDS011;10784;50.578;17.878;2023-12-14T14:01:39;30.42;;;11.55;;
21251;SDS011;10784;50.578;17.878;2023-12-14T14:04:12;33.58;;;12.30;;
21251;SDS011;10784;50.578;17.878;2023-12-14T14:06:46;31.23;;;13.52;;
21251;SDS011;10784;50.578;17.878;2023-12-14T14:09:20;33.60;;;14.75;;
21251;SDS011;10784;50.578;17.878;2023-12-14T14:11:53;39.85;;;13.43;;
21251;SDS011;10784;50.578;17.878;2023-12-14T14:14:27;29.42;;;12.63;;
21251;SDS011;10784;50.578;17.878;2023-12-14T14:16:59;38.63;;;12.63;;
21251;SDS011;10784;50.578;17.878;2023-12-14T14:19:32;39.08;;;14.18;;
21251;SDS011;10784;50.578;17.878;2023-12-14T14:22:05;39.83;;;14.00;;
21251;SDS011;10784;50.578;17.878;2023-12-14T14:24:38;51.25;;;13.50;;
21251;SDS011;10784;50.578;17.878;2023-12-14T14:27:11;49.17;;;15.43;;
21251;SDS011;10784;50.578;17.878;2023-12-14T14:29:44;46.45;;;13.77;;
21251;SDS011;10784;50.578;17.878;2023-12-14T14:32:17;40.83;;;13.40;;
21251;SDS011;10784;50.578;17.878;2023-12-14T14:34:50;38.58;;;14.13;;
21251;SDS011;10784;50.578;17.878;2023-12-14T14:37:23;38.25;;;13.85;;
21251;SDS011;10784;50.578;17.878;2023-12-14T14:39:56;41.50;;;14.60;;
21251;SDS011;10784;50.578;17.878;2023-12-14T14:42:29;38.08;;;14.00;;
21251;SDS011;10784;50.578;17.878;2023-12-14T14:45:03;37.95;;;12.98;;
21251;SDS011;10784;50.578;17.878;2023-12-14T14:47:39;30.40;;;11.48;;
21251;SDS011;10784;50.578;17.878;2023-12-14T14:50:12;30.75;;;12.05;;